createdAt,value
2019-02-17T00:01:52.763Z,63.27
2019-02-17T00:04:19.855Z,68.60
2019-02-17T00:06:47.060Z,66.57
2019-02-17T00:09:13.826Z,68.57
2019-02-17T00:11:40.689Z,67.37
2019-02-17T00:14:07.413Z,63.07
2019-02-17T00:16:34.135Z,56.13
2019-02-17T00:19:01.013Z,62.90
2019-02-17T00:21:27.838Z,69.40
2019-02-17T00:23:54.570Z,62.70
2019-02-17T00:26:21.403Z,62.90
2019-02-17T00:28:48.268Z,58.70
2019-02-17T00:31:15.134Z,59.80
2019-02-17T00:33:41.948Z,65.53
2019-02-17T00:36:08.784Z,61.27
2019-02-17T00:38:35.522Z,64.93
2019-02-17T00:41:02.245Z,69.50
2019-02-17T00:43:29.006Z,64.50
2019-02-17T00:45:55.940Z,63.97
2019-02-17T00:48:22.795Z,70.13
2019-02-17T00:50:49.524Z,68.13
2019-02-17T00:53:16.248Z,66.60
2019-02-17T00:55:43.322Z,66.90
2019-02-17T00:58:10.084Z,57.50
2019-02-17T01:00:37.863Z,66.37
2019-02-17T01:03:04.646Z,61.73
2019-02-17T01:05:32.005Z,73.47
2019-02-17T01:08:06.312Z,68.23
2019-02-17T01:10:32.950Z,64.23
2019-02-17T01:13:00.003Z,64.27
2019-02-17T01:15:27.257Z,63.03
2019-02-17T01:17:53.996Z,57.67
2019-02-17T01:20:20.846Z,58.93
2019-02-17T01:22:48.620Z,58.87
2019-02-17T01:25:15.347Z,57.10
2019-02-17T01:27:42.071Z,62.60
2019-02-17T01:30:09.794Z,68.00
2019-02-17T01:32:37.085Z,67.37
2019-02-17T01:35:03.822Z,61.23
2019-02-17T01:37:30.583Z,61.90
2019-02-17T01:39:57.711Z,58.37
2019-02-17T01:42:24.600Z,62.33
2019-02-17T01:44:51.601Z,58.03
2019-02-17T01:47:19.787Z,63.57
2019-02-17T01:49:46.888Z,64.77
2019-02-17T01:52:13.565Z,62.53
2019-02-17T01:54:40.309Z,64.67
2019-02-17T01:57:07.961Z,60.90
2019-02-17T01:59:34.909Z,61.67
2019-02-17T02:02:02.575Z,61.40
2019-02-17T02:04:30.320Z,68.97
2019-02-17T02:06:57.886Z,60.67
2019-02-17T02:09:25.221Z,58.57
2019-02-17T02:11:51.984Z,56.70
2019-02-17T02:14:19.922Z,58.77
2019-02-17T02:16:46.683Z,54.03
2019-02-17T02:19:13.430Z,56.80
2019-02-17T02:21:40.275Z,50.10
2019-02-17T02:24:07.169Z,54.80
2019-02-17T02:26:33.866Z,58.40
2019-02-17T02:29:01.281Z,54.87
2019-02-17T02:31:27.939Z,57.27
2019-02-17T02:33:54.789Z,59.37
2019-02-17T02:36:21.524Z,55.60
2019-02-17T02:38:48.261Z,51.43
2019-02-17T02:41:14.966Z,57.00
2019-02-17T02:43:41.750Z,61.20
2019-02-17T02:46:09.807Z,58.63
2019-02-17T02:48:38.267Z,53.27
2019-02-17T02:51:05.043Z,49.87
2019-02-17T02:53:31.879Z,57.60
2019-02-17T02:55:59.020Z,61.83
2019-02-17T02:58:25.866Z,53.13
2019-02-17T03:00:52.594Z,55.83
2019-02-17T03:03:19.301Z,60.50
2019-02-17T03:05:46.186Z,56.73
2019-02-17T03:08:13.873Z,47.93
2019-02-17T03:10:40.683Z,52.73
2019-02-17T03:13:07.428Z,50.67
2019-02-17T03:15:34.270Z,55.43
2019-02-17T03:18:01.111Z,53.77
2019-02-17T03:20:27.958Z,57.17
2019-02-17T03:22:54.786Z,50.80
2019-02-17T03:25:22.059Z,50.80
2019-02-17T03:27:48.891Z,53.60
2019-02-17T03:30:15.619Z,51.17
2019-02-17T03:32:42.358Z,47.20
2019-02-17T03:35:09.198Z,51.30
2019-02-17T03:37:35.942Z,44.57
2019-02-17T03:40:02.685Z,50.73
2019-02-17T03:42:29.532Z,53.10
2019-02-17T03:44:56.271Z,44.30
2019-02-17T03:47:24.136Z,50.97
2019-02-17T03:49:50.864Z,54.63
2019-02-17T03:52:18.960Z,48.73
2019-02-17T03:54:45.681Z,48.73
2019-02-17T03:57:12.411Z,50.70
2019-02-17T03:59:39.763Z,51.40
2019-02-17T04:02:06.513Z,56.37
2019-02-17T04:04:33.935Z,55.43
2019-02-17T04:07:00.699Z,49.93
2019-02-17T04:09:29.328Z,51.83
2019-02-17T04:11:56.135Z,46.47
2019-02-17T04:14:22.979Z,55.03
2019-02-17T04:16:49.720Z,51.07
2019-02-17T04:19:17.582Z,44.40
2019-02-17T04:21:44.321Z,47.33
2019-02-17T04:24:11.768Z,49.33
2019-02-17T04:26:39.224Z,45.87
2019-02-17T04:29:05.974Z,43.70
2019-02-17T04:31:32.702Z,46.97
2019-02-17T04:34:00.381Z,48.37
2019-02-17T04:36:27.211Z,50.90
2019-02-17T04:38:55.254Z,38.43
2019-02-17T04:41:22.021Z,51.77
2019-02-17T04:43:48.754Z,42.43
2019-02-17T04:46:15.492Z,47.70
2019-02-17T04:48:42.245Z,45.83
2019-02-17T04:51:08.935Z,43.23
2019-02-17T04:53:35.619Z,51.07
2019-02-17T04:56:02.345Z,45.63
2019-02-17T04:58:29.089Z,44.80
2019-02-17T05:00:56.030Z,53.33
2019-02-17T05:03:22.770Z,49.80
2019-02-17T05:05:49.510Z,51.93
2019-02-17T05:08:16.366Z,50.90
2019-02-17T05:10:43.091Z,47.80
2019-02-17T05:13:09.894Z,48.57
2019-02-17T05:15:36.678Z,48.40
2019-02-17T05:18:03.522Z,51.13
2019-02-17T05:20:30.427Z,49.27
2019-02-17T05:22:57.207Z,48.67
2019-02-17T05:25:24.037Z,53.10
2019-02-17T05:27:50.675Z,53.30
2019-02-17T05:30:17.435Z,53.70
2019-02-17T05:32:44.152Z,44.37
2019-02-17T05:35:10.904Z,48.87
2019-02-17T05:37:37.684Z,50.40
2019-02-17T05:40:04.480Z,54.17
2019-02-17T05:42:31.326Z,45.87
2019-02-17T05:44:58.167Z,45.07
2019-02-17T05:47:24.896Z,52.57
2019-02-17T05:49:51.737Z,45.00
2019-02-17T05:52:18.486Z,44.57
2019-02-17T05:54:45.218Z,45.37
2019-02-17T05:57:11.968Z,48.23
2019-02-17T05:59:38.692Z,47.03
2019-02-17T06:02:05.544Z,43.23
2019-02-17T06:04:32.284Z,49.07
2019-02-17T06:06:59.024Z,52.47
2019-02-17T06:09:25.868Z,46.00
2019-02-17T06:11:52.717Z,49.57
2019-02-17T06:14:19.549Z,47.87
2019-02-17T06:16:46.403Z,48.53
2019-02-17T06:19:13.234Z,50.23
2019-02-17T06:21:40.080Z,47.00
2019-02-17T06:24:07.120Z,52.93
2019-02-17T06:26:33.919Z,52.60
2019-02-17T06:29:00.599Z,47.30
2019-02-17T06:31:27.456Z,47.57
2019-02-17T06:33:54.296Z,50.80
2019-02-17T06:36:21.051Z,47.00
2019-02-17T06:38:47.967Z,43.83
2019-02-17T06:41:14.806Z,54.33
2019-02-17T06:43:41.566Z,46.03
2019-02-17T06:46:08.391Z,45.30
2019-02-17T06:48:35.130Z,51.93
2019-02-17T06:51:01.961Z,47.90
2019-02-17T06:53:28.701Z,44.07
2019-02-17T06:55:55.447Z,46.03
2019-02-17T06:58:22.182Z,52.30
2019-02-17T07:00:48.815Z,50.47
2019-02-17T07:03:15.669Z,46.57
2019-02-17T07:05:42.408Z,46.07
2019-02-17T07:08:09.236Z,49.97
2019-02-17T07:10:35.978Z,49.40
2019-02-17T07:13:02.631Z,47.00
2019-02-17T07:15:29.464Z,44.23
2019-02-17T07:17:56.202Z,49.43
2019-02-17T07:20:22.904Z,51.63
2019-02-17T07:22:49.689Z,45.27
2019-02-17T07:25:16.411Z,49.80
2019-02-17T07:27:43.780Z,48.67
2019-02-17T07:30:10.522Z,49.20
2019-02-17T07:32:37.370Z,49.87
2019-02-17T07:35:04.300Z,50.37
2019-02-17T07:37:33.475Z,48.70
2019-02-17T07:39:59.510Z,54.23
2019-02-17T07:42:26.312Z,47.30
2019-02-17T07:44:53.091Z,43.17
2019-02-17T07:47:20.035Z,45.27
2019-02-17T07:49:47.114Z,47.53
2019-02-17T07:52:14.128Z,45.00
2019-02-17T07:54:41.441Z,40.57
2019-02-17T07:57:08.224Z,45.77
2019-02-17T07:59:34.968Z,46.03
2019-02-17T08:02:01.711Z,48.87
2019-02-17T08:04:28.778Z,46.33
2019-02-17T08:06:55.697Z,41.20
2019-02-17T08:09:22.750Z,42.70
2019-02-17T08:11:50.206Z,46.43
2019-02-17T08:14:17.071Z,43.00
2019-02-17T08:16:43.801Z,43.50
2019-02-17T08:19:10.500Z,43.70
2019-02-17T08:21:37.313Z,45.50
2019-02-17T08:24:04.093Z,44.97
2019-02-17T08:26:31.252Z,48.37
2019-02-17T08:28:58.697Z,43.67
2019-02-17T08:31:25.439Z,43.87
2019-02-17T08:33:52.380Z,46.63
2019-02-17T08:36:19.359Z,46.37
2019-02-17T08:38:46.074Z,42.80
2019-02-17T08:41:12.817Z,42.80
2019-02-17T08:43:39.549Z,39.17
2019-02-17T08:46:06.291Z,39.90
2019-02-17T08:48:33.132Z,37.10
2019-02-17T08:50:59.864Z,36.33
2019-02-17T08:53:26.602Z,34.17
2019-02-17T08:55:53.765Z,35.00
2019-02-17T08:58:20.503Z,35.53
2019-02-17T09:00:47.343Z,36.00
2019-02-17T09:03:14.284Z,36.33
2019-02-17T09:05:44.174Z,34.18
2019-02-17T09:08:09.399Z,37.38
2019-02-17T09:10:36.236Z,38.65
2019-02-17T09:13:02.979Z,34.88
2019-02-17T09:15:29.815Z,33.88
2019-02-17T09:17:56.453Z,33.53
2019-02-17T09:20:23.195Z,30.23
2019-02-17T09:22:50.498Z,30.25
2019-02-17T09:25:19.087Z,29.92
2019-02-17T09:27:46.008Z,29.35
2019-02-17T09:30:13.046Z,24.65
2019-02-17T09:32:39.867Z,24.40
2019-02-17T09:35:06.706Z,22.45
2019-02-17T09:37:33.549Z,21.30
2019-02-17T09:40:00.352Z,23.80
2019-02-17T09:42:27.062Z,22.40
2019-02-17T09:44:53.881Z,22.40
2019-02-17T09:47:20.601Z,22.42
2019-02-17T09:49:47.451Z,21.33
2019-02-17T09:52:14.291Z,21.02
2019-02-17T09:54:41.022Z,20.80
2019-02-17T09:57:07.660Z,20.88
2019-02-17T09:59:34.412Z,18.48
2019-02-17T10:02:01.146Z,19.92
2019-02-17T10:04:27.990Z,18.60
2019-02-17T10:06:54.826Z,20.72
2019-02-17T10:09:21.568Z,23.10
2019-02-17T10:11:48.506Z,19.37
2019-02-17T10:14:15.560Z,19.12
2019-02-17T10:16:42.258Z,17.52
2019-02-17T10:19:09.132Z,18.98
2019-02-17T10:21:35.976Z,17.42
2019-02-17T10:24:02.702Z,17.85
2019-02-17T10:26:29.452Z,17.67
2019-02-17T10:28:56.332Z,19.75
2019-02-17T10:31:23.136Z,22.37
2019-02-17T10:33:49.984Z,21.97
2019-02-17T10:36:16.827Z,20.85
2019-02-17T10:38:43.557Z,17.48
2019-02-17T10:41:10.298Z,21.97
2019-02-17T10:43:37.036Z,18.40
2019-02-17T10:46:05.977Z,18.42
2019-02-17T10:48:32.264Z,18.77
2019-02-17T10:50:59.111Z,20.00
2019-02-17T10:53:25.802Z,20.55
2019-02-17T10:55:52.473Z,19.98
2019-02-17T10:58:19.179Z,20.52
2019-02-17T11:00:45.850Z,19.57
2019-02-17T11:03:12.596Z,20.45
2019-02-17T11:05:39.329Z,18.87
2019-02-17T11:08:06.076Z,18.10
2019-02-17T11:10:32.804Z,19.75
2019-02-17T11:12:59.551Z,19.55
2019-02-17T11:15:26.283Z,21.05
2019-02-17T11:17:52.938Z,18.65
2019-02-17T11:20:19.665Z,20.05
2019-02-17T11:22:46.299Z,17.32
2019-02-17T11:25:13.038Z,19.15
2019-02-17T11:27:39.787Z,17.00
2019-02-17T11:30:06.620Z,18.15
2019-02-17T11:32:33.369Z,19.07
2019-02-17T11:35:00.343Z,18.62
2019-02-17T11:37:27.151Z,20.00
2019-02-17T11:39:53.890Z,19.05
2019-02-17T11:42:20.736Z,19.23
2019-02-17T11:44:47.469Z,18.05
2019-02-17T11:47:14.163Z,20.40
2019-02-17T11:49:40.851Z,20.25
2019-02-17T11:52:07.566Z,20.43
2019-02-17T11:54:34.345Z,21.50
2019-02-17T11:57:01.181Z,21.52
2019-02-17T11:59:27.928Z,21.70
2019-02-17T12:01:54.685Z,19.98
2019-02-17T12:04:21.588Z,21.68
2019-02-17T12:06:48.434Z,20.02
2019-02-17T12:09:15.176Z,20.82
2019-02-17T12:11:41.931Z,17.92
2019-02-17T12:14:08.856Z,19.15
2019-02-17T12:16:37.213Z,18.57
2019-02-17T12:19:04.176Z,17.85
2019-02-17T12:21:30.917Z,16.05
2019-02-17T12:23:57.653Z,16.85
2019-02-17T12:26:24.384Z,17.12
2019-02-17T12:28:51.122Z,14.78
2019-02-17T12:31:17.760Z,14.20
2019-02-17T12:33:44.462Z,12.78
2019-02-17T12:36:11.144Z,14.65
2019-02-17T12:38:37.846Z,13.28
2019-02-17T12:41:04.625Z,13.05
2019-02-17T12:43:31.359Z,13.68
2019-02-17T12:45:58.092Z,11.33
2019-02-17T12:48:24.835Z,13.58
2019-02-17T12:50:51.685Z,11.22
2019-02-17T12:53:18.434Z,12.78
2019-02-17T12:55:45.162Z,11.43
2019-02-17T12:58:11.975Z,14.87
2019-02-17T13:00:38.632Z,12.75
2019-02-17T13:03:05.481Z,10.58
2019-02-17T13:05:32.324Z,11.68
2019-02-17T13:07:59.064Z,10.57
2019-02-17T13:10:25.903Z,9.80
2019-02-17T13:12:52.755Z,10.20
2019-02-17T13:15:19.487Z,11.63
2019-02-17T13:17:46.213Z,10.00
2019-02-17T13:20:12.851Z,10.37
2019-02-17T13:22:39.600Z,11.17
2019-02-17T13:25:06.327Z,12.17
2019-02-17T13:27:33.181Z,10.50
2019-02-17T13:29:59.915Z,9.73
2019-02-17T13:32:26.762Z,12.35
2019-02-17T13:34:53.608Z,9.93
2019-02-17T13:37:20.340Z,11.90
2019-02-17T13:39:47.080Z,9.55
2019-02-17T13:42:13.923Z,9.85
2019-02-17T13:44:40.668Z,9.18
2019-02-17T13:47:07.606Z,9.15
2019-02-17T13:49:34.336Z,7.80
2019-02-17T13:52:00.970Z,9.23
2019-02-17T13:54:27.712Z,8.95
2019-02-17T13:56:54.448Z,7.75
2019-02-17T13:59:21.105Z,7.70
2019-02-17T14:01:47.831Z,7.28
2019-02-17T14:04:14.564Z,8.18
2019-02-17T14:06:41.216Z,7.03
2019-02-17T14:09:08.041Z,6.90
2019-02-17T14:11:34.684Z,6.55
2019-02-17T14:14:01.430Z,7.78
2019-02-17T14:16:28.124Z,8.20
2019-02-17T14:18:54.806Z,6.95
2019-02-17T14:21:21.544Z,7.62
2019-02-17T14:23:48.274Z,8.13
2019-02-17T14:26:15.023Z,9.18
2019-02-17T14:28:41.868Z,7.95
2019-02-17T14:31:08.616Z,7.40
2019-02-17T14:33:35.334Z,8.43
2019-02-17T14:36:02.101Z,8.88
2019-02-17T14:38:28.760Z,9.90
2019-02-17T14:40:55.564Z,10.88
2019-02-17T14:43:22.295Z,10.78
2019-02-17T14:45:49.031Z,9.73
2019-02-17T14:48:15.883Z,10.93
2019-02-17T14:50:42.617Z,12.37
2019-02-17T14:53:09.352Z,9.80
2019-02-17T14:55:36.101Z,10.90
2019-02-17T14:58:05.540Z,11.43
2019-02-17T15:00:31.418Z,10.38
2019-02-17T15:02:58.265Z,10.43
2019-02-17T15:05:25.810Z,12.47
2019-02-17T15:07:52.581Z,10.53
2019-02-17T15:10:19.222Z,10.53
2019-02-17T15:12:46.034Z,10.55
2019-02-17T15:15:12.772Z,10.68
2019-02-17T15:17:39.478Z,11.73
2019-02-17T15:20:06.255Z,11.83
2019-02-17T15:22:32.992Z,13.20
2019-02-17T15:24:59.726Z,12.63
2019-02-17T15:27:26.467Z,13.53
2019-02-17T15:29:53.227Z,12.47
2019-02-17T15:32:20.264Z,12.33
2019-02-17T15:34:47.033Z,13.50
2019-02-17T15:37:13.833Z,12.33
2019-02-17T15:39:41.733Z,12.50
2019-02-17T15:42:09.350Z,14.53
2019-02-17T15:44:36.506Z,11.97
2019-02-17T15:47:03.247Z,14.30
2019-02-17T15:49:30.108Z,11.50
2019-02-17T15:51:56.958Z,12.97
2019-02-17T15:54:23.779Z,12.50
2019-02-17T15:56:53.928Z,13.60
2019-02-17T15:59:21.557Z,14.33
2019-02-17T16:01:48.398Z,16.03
2019-02-17T16:04:15.260Z,13.17
2019-02-17T16:06:41.976Z,12.37
2019-02-17T16:09:08.840Z,12.93
2019-02-17T16:11:35.671Z,14.03
2019-02-17T16:14:02.426Z,14.00
2019-02-17T16:16:29.340Z,11.47
2019-02-17T16:18:56.300Z,13.23
2019-02-17T16:21:23.583Z,15.40
2019-02-17T16:23:50.713Z,13.73
2019-02-17T16:26:17.691Z,14.47
2019-02-17T16:28:44.326Z,13.43
2019-02-17T16:31:11.829Z,15.70
2019-02-17T16:33:39.464Z,15.97
2019-02-17T16:36:06.235Z,13.27
2019-02-17T16:38:33.442Z,14.70
2019-02-17T16:41:00.383Z,16.13
2019-02-17T16:43:27.161Z,15.37
2019-02-17T16:45:53.896Z,13.40
2019-02-17T16:48:20.653Z,13.70
2019-02-17T16:50:47.483Z,12.90
2019-02-17T16:53:14.225Z,14.43
2019-02-17T16:55:41.366Z,16.27
2019-02-17T16:58:08.514Z,14.03
2019-02-17T17:00:35.253Z,20.13
2019-02-17T17:03:02.107Z,15.17
2019-02-17T17:05:28.835Z,16.83
2019-02-17T17:07:55.576Z,17.13
2019-02-17T17:10:22.443Z,18.77
2019-02-17T17:12:49.165Z,18.37
2019-02-17T17:15:16.006Z,18.77
2019-02-17T17:17:42.894Z,16.30
2019-02-17T17:20:09.963Z,16.97
2019-02-17T17:22:36.950Z,18.00
2019-02-17T17:25:03.683Z,18.07
2019-02-17T17:27:30.532Z,16.17
2019-02-17T17:29:57.258Z,17.83
2019-02-17T17:32:23.996Z,20.20
2019-02-17T17:34:58.648Z,17.60
2019-02-17T17:37:19.225Z,20.50
2019-02-17T17:39:46.057Z,16.70
2019-02-17T17:42:13.005Z,17.00
2019-02-17T17:44:39.853Z,17.70
2019-02-17T17:47:06.588Z,16.60
2019-02-17T17:49:33.467Z,20.07
2019-02-17T17:52:00.274Z,18.47
2019-02-17T17:54:27.004Z,21.20
2019-02-17T17:56:53.853Z,17.63
2019-02-17T17:59:20.695Z,21.00
2019-02-17T18:01:47.386Z,22.23
2019-02-17T18:04:14.549Z,19.10
2019-02-17T18:06:41.323Z,15.33
2019-02-17T18:09:08.162Z,19.30
2019-02-17T18:11:35.097Z,19.67
2019-02-17T18:14:02.338Z,23.33
2019-02-17T18:16:29.198Z,21.13
2019-02-17T18:18:55.909Z,25.07
2019-02-17T18:21:23.293Z,22.23
2019-02-17T18:23:50.024Z,20.80
2019-02-17T18:26:16.760Z,23.37
2019-02-17T18:28:43.828Z,27.03
2019-02-17T18:31:10.663Z,27.77
2019-02-17T18:33:37.389Z,26.17
2019-02-17T18:36:04.264Z,25.17
2019-02-17T18:38:31.078Z,29.00
2019-02-17T18:40:57.932Z,26.47
2019-02-17T18:43:25.862Z,23.80
2019-02-17T18:45:52.736Z,23.63
2019-02-17T18:48:19.571Z,22.83
2019-02-17T18:50:46.301Z,24.57
2019-02-17T18:53:15.254Z,22.83
2019-02-17T18:55:41.466Z,23.27
2019-02-17T18:58:08.644Z,22.27
2019-02-17T19:00:35.867Z,26.43
2019-02-17T19:03:02.780Z,22.27
2019-02-17T19:05:32.317Z,25.20
2019-02-17T19:07:58.133Z,25.77
2019-02-17T19:10:25.376Z,24.20
2019-02-17T19:12:52.197Z,24.40
2019-02-17T19:15:19.048Z,23.30
2019-02-17T19:17:46.067Z,23.27
2019-02-17T19:20:12.820Z,26.07
2019-02-17T19:22:39.544Z,24.00
2019-02-17T19:25:06.298Z,28.13
2019-02-17T19:27:33.024Z,27.43
2019-02-17T19:29:59.827Z,29.00
2019-02-17T19:32:26.646Z,30.50
2019-02-17T19:34:53.456Z,32.47
2019-02-17T19:37:20.191Z,30.40
2019-02-17T19:39:46.954Z,27.17
2019-02-17T19:42:13.727Z,30.50
2019-02-17T19:44:40.524Z,32.07
2019-02-17T19:47:07.247Z,35.30
2019-02-17T19:49:33.960Z,34.23
2019-02-17T19:52:00.737Z,31.43
2019-02-17T19:54:27.571Z,30.87
2019-02-17T19:56:54.313Z,36.87
2019-02-17T19:59:21.044Z,34.83
2019-02-17T20:01:47.792Z,38.20
2019-02-17T20:04:14.533Z,43.83
2019-02-17T20:06:41.387Z,36.53
2019-02-17T20:09:08.099Z,33.40
2019-02-17T20:11:34.952Z,40.20
2019-02-17T20:14:01.798Z,42.47
2019-02-17T20:16:28.532Z,48.17
2019-02-17T20:18:55.392Z,42.97
2019-02-17T20:21:22.225Z,48.80
2019-02-17T20:23:48.958Z,43.27
2019-02-17T20:26:15.798Z,47.77
2019-02-17T20:28:43.654Z,46.20
2019-02-17T20:31:10.722Z,52.30
2019-02-17T20:33:37.428Z,54.17
2019-02-17T20:36:04.196Z,50.93
2019-02-17T20:38:31.031Z,58.13
2019-02-17T20:40:57.877Z,44.03
2019-02-17T20:43:24.707Z,55.20
2019-02-17T20:45:51.456Z,56.93
2019-02-17T20:48:18.297Z,42.23
2019-02-17T20:50:45.549Z,48.33
2019-02-17T20:53:12.390Z,50.80
2019-02-17T20:55:39.230Z,54.87
2019-02-17T20:58:06.661Z,57.20
2019-02-17T21:00:33.415Z,62.63
2019-02-17T21:03:00.181Z,51.57
2019-02-17T21:05:26.902Z,63.20
2019-02-17T21:07:53.741Z,60.23
2019-02-17T21:10:20.693Z,67.10
2019-02-17T21:12:47.428Z,55.00
2019-02-17T21:15:14.267Z,59.90
2019-02-17T21:17:41.119Z,56.13
2019-02-17T21:20:08.366Z,68.30
2019-02-17T21:22:35.185Z,63.50
2019-02-17T21:25:02.154Z,57.90
2019-02-17T21:27:28.993Z,62.33
2019-02-17T21:29:55.737Z,62.17
2019-02-17T21:32:22.569Z,61.43
2019-02-17T21:34:49.301Z,65.80
2019-02-17T21:37:16.919Z,60.27
2019-02-17T21:39:44.211Z,59.77
2019-02-17T21:42:10.975Z,61.70
2019-02-17T21:44:37.819Z,61.77
2019-02-17T21:47:04.876Z,54.70
2019-02-17T21:49:31.683Z,64.60
2019-02-17T21:51:58.450Z,62.93
2019-02-17T21:54:25.281Z,62.00
2019-02-17T21:56:52.122Z,59.80
2019-02-17T21:59:18.965Z,57.80
2019-02-17T22:01:46.238Z,54.63
2019-02-17T22:04:12.981Z,55.23
2019-02-17T22:06:39.894Z,64.03
2019-02-17T22:09:06.731Z,46.83
2019-02-17T22:11:33.476Z,56.23
2019-02-17T22:14:00.323Z,54.33
2019-02-17T22:16:27.060Z,51.27
2019-02-17T22:18:53.898Z,62.93
2019-02-17T22:21:20.735Z,55.33
2019-02-17T22:23:47.439Z,55.80
2019-02-17T22:26:14.219Z,63.67
2019-02-17T22:28:41.063Z,51.40
2019-02-17T22:31:07.787Z,48.93
2019-02-17T22:33:34.627Z,52.57
2019-02-17T22:36:01.367Z,52.63
2019-02-17T22:38:28.007Z,53.97
2019-02-17T22:40:54.707Z,56.70
2019-02-17T22:43:21.395Z,52.07
2019-02-17T22:45:48.219Z,55.77
2019-02-17T22:48:14.861Z,60.83
2019-02-17T22:50:41.596Z,57.83
2019-02-17T22:53:08.335Z,46.80
2019-02-17T22:55:35.138Z,59.43
2019-02-17T22:58:01.921Z,55.67
2019-02-17T23:00:28.873Z,53.80
2019-02-17T23:02:55.624Z,56.90
2019-02-17T23:05:22.468Z,51.40
2019-02-17T23:07:49.404Z,54.13
2019-02-17T23:10:16.140Z,58.00
2019-02-17T23:12:42.980Z,64.43
2019-02-17T23:15:09.808Z,54.40
2019-02-17T23:17:36.583Z,61.67
2019-02-17T23:20:03.389Z,64.60
2019-02-17T23:22:30.238Z,57.63
2019-02-17T23:24:56.981Z,65.23
2019-02-17T23:27:23.820Z,68.93
2019-02-17T23:29:52.096Z,61.83
2019-02-17T23:32:20.893Z,69.70
2019-02-17T23:34:49.369Z,62.63
2019-02-17T23:37:17.379Z,57.07
2019-02-17T23:39:44.391Z,71.77
2019-02-17T23:42:11.912Z,58.30
2019-02-17T23:44:39.588Z,56.47
2019-02-17T23:47:07.363Z,66.57
2019-02-17T23:49:34.104Z,64.87
2019-02-17T23:52:00.941Z,59.63
2019-02-17T23:54:27.643Z,56.10
2019-02-17T23:56:54.318Z,61.23
2019-02-17T23:59:21.662Z,68.60
